createdAt,value
2018-04-26T00:00:04.120Z,0.00
2018-04-26T00:01:04.106Z,0.00
2018-04-26T00:02:04.074Z,0.00
2018-04-26T00:03:04.049Z,0.00
2018-04-26T00:04:04.025Z,0.00
2018-04-26T00:05:03.998Z,0.00
2018-04-26T00:06:03.967Z,0.00
2018-04-26T00:07:03.939Z,0.00
2018-04-26T00:08:03.914Z,0.00
2018-04-26T00:09:04.483Z,0.00
2018-04-26T00:10:04.475Z,0.00
2018-04-26T00:11:03.843Z,0.00
2018-04-26T00:12:03.809Z,0.00
2018-04-26T00:13:03.781Z,0.00
2018-04-26T00:14:03.763Z,0.00
2018-04-26T00:15:03.729Z,0.00
2018-04-26T00:16:03.702Z,0.00
2018-04-26T00:17:03.679Z,0.00
2018-04-26T00:18:03.655Z,0.00
2018-04-26T00:19:03.623Z,0.00
2018-04-26T00:20:03.611Z,0.00
2018-04-26T00:21:03.584Z,0.00
2018-04-26T00:22:03.552Z,0.00
2018-04-26T00:23:03.525Z,0.00
2018-04-26T00:24:03.501Z,0.00
2018-04-26T00:25:03.463Z,0.00
2018-04-26T00:26:03.451Z,0.00
2018-04-26T00:27:03.474Z,0.00
2018-04-26T00:28:03.394Z,0.00
2018-04-26T00:29:03.359Z,0.00
2018-04-26T00:30:03.340Z,0.00
2018-04-26T00:31:03.314Z,0.00
2018-04-26T00:32:03.280Z,0.00
2018-04-26T00:33:03.260Z,0.00
2018-04-26T00:34:03.233Z,0.00
2018-04-26T00:35:03.205Z,0.00
2018-04-26T00:36:03.191Z,0.00
2018-04-26T00:37:03.153Z,0.00
2018-04-26T00:38:03.127Z,0.00
2018-04-26T00:39:03.103Z,0.00
2018-04-26T00:40:03.078Z,0.00
2018-04-26T00:41:03.044Z,0.00
2018-04-26T00:42:03.019Z,0.00
2018-04-26T00:43:02.989Z,0.00
2018-04-26T00:44:02.974Z,0.00
2018-04-26T00:45:02.944Z,0.00
2018-04-26T00:46:02.913Z,0.00
2018-04-26T00:47:02.890Z,0.00
2018-04-26T00:48:02.939Z,0.00
2018-04-26T00:49:02.827Z,0.00
2018-04-26T00:50:02.807Z,0.00
2018-04-26T00:51:02.778Z,0.00
2018-04-26T00:52:02.749Z,0.00
2018-04-26T00:53:02.727Z,0.00
2018-04-26T00:54:02.704Z,0.00
2018-04-26T00:55:02.670Z,0.00
2018-04-26T00:56:02.646Z,0.00
2018-04-26T00:57:02.623Z,0.00
2018-04-26T00:58:02.594Z,0.00
2018-04-26T00:59:02.570Z,0.00
2018-04-26T01:00:02.545Z,0.00
2018-04-26T01:01:02.516Z,0.00
2018-04-26T01:02:02.493Z,0.00
2018-04-26T01:03:02.465Z,0.00
2018-04-26T01:04:02.435Z,0.00
2018-04-26T01:05:02.423Z,0.00
2018-04-26T01:06:03.498Z,0.00
2018-04-26T01:07:02.359Z,0.00
2018-04-26T01:08:02.336Z,0.00
2018-04-26T01:09:02.301Z,0.00
2018-04-26T01:10:02.282Z,0.00
2018-04-26T01:11:02.265Z,0.00
2018-04-26T01:12:02.223Z,0.00
2018-04-26T01:13:02.208Z,0.00
2018-04-26T01:14:02.171Z,0.00
2018-04-26T01:15:02.151Z,0.00
2018-04-26T01:16:02.121Z,0.00
2018-04-26T01:17:02.092Z,0.00
2018-04-26T01:18:02.070Z,0.00
2018-04-26T01:19:02.035Z,0.00
2018-04-26T01:20:02.149Z,0.00
2018-04-26T01:21:01.996Z,0.00
2018-04-26T01:22:01.966Z,0.00
2018-04-26T01:23:01.932Z,0.00
2018-04-26T01:24:01.913Z,0.00
2018-04-26T01:25:01.884Z,0.00
2018-04-26T01:26:01.868Z,0.00
2018-04-26T01:27:01.833Z,0.00
2018-04-26T01:28:01.801Z,0.00
2018-04-26T01:29:01.788Z,0.00
2018-04-26T01:30:01.749Z,0.00
2018-04-26T01:31:01.727Z,0.00
2018-04-26T01:32:01.699Z,0.00
2018-04-26T01:33:01.673Z,0.00
2018-04-26T01:34:01.648Z,0.00
2018-04-26T01:35:01.614Z,0.00
2018-04-26T01:36:01.589Z,0.00
2018-04-26T01:37:01.567Z,0.00
2018-04-26T01:38:01.539Z,0.00
2018-04-26T01:39:01.510Z,0.00
2018-04-26T01:40:01.492Z,0.00
2018-04-26T01:41:01.460Z,0.00
2018-04-26T01:42:01.434Z,0.00
2018-04-26T01:43:01.406Z,0.00
2018-04-26T01:44:01.379Z,0.00
2018-04-26T01:45:01.359Z,0.00
2018-04-26T01:46:01.325Z,0.00
2018-04-26T01:47:01.308Z,0.00
2018-04-26T01:48:01.273Z,0.00
2018-04-26T01:49:01.249Z,0.00
2018-04-26T01:50:01.224Z,0.00
2018-04-26T01:51:01.198Z,0.00
2018-04-26T01:52:01.170Z,0.00
2018-04-26T01:53:01.146Z,0.00
2018-04-26T01:54:01.128Z,0.00
2018-04-26T01:55:01.092Z,0.00
2018-04-26T01:56:01.066Z,0.00
2018-04-26T01:57:01.032Z,0.00
2018-04-26T01:58:01.008Z,0.00
2018-04-26T01:59:00.986Z,0.00
2018-04-26T02:00:00.957Z,0.00
2018-04-26T02:01:00.935Z,0.00
2018-04-26T02:02:00.917Z,0.00
2018-04-26T02:03:00.876Z,0.00
2018-04-26T02:04:00.854Z,0.00
2018-04-26T02:05:00.824Z,0.00
2018-04-26T02:06:00.794Z,0.00
2018-04-26T02:07:00.772Z,0.00
2018-04-26T02:08:00.741Z,0.00
2018-04-26T02:09:00.718Z,0.00
2018-04-26T02:10:00.689Z,0.00
2018-04-26T02:11:00.666Z,0.00
2018-04-26T02:12:00.638Z,0.00
2018-04-26T02:13:00.612Z,0.00
2018-04-26T02:14:00.582Z,0.00
2018-04-26T02:15:00.559Z,0.00
2018-04-26T02:16:00.534Z,0.00
2018-04-26T02:17:00.522Z,0.00
2018-04-26T02:18:00.476Z,0.00
2018-04-26T02:19:00.452Z,0.00
2018-04-26T02:20:00.426Z,0.00
2018-04-26T02:21:00.394Z,0.00
2018-04-26T02:22:00.371Z,0.00
2018-04-26T02:23:00.342Z,0.00
2018-04-26T02:24:00.319Z,0.00
2018-04-26T02:25:00.295Z,0.00
2018-04-26T02:26:00.262Z,0.00
2018-04-26T02:27:00.238Z,0.00
2018-04-26T02:28:00.214Z,0.00
2018-04-26T02:29:00.179Z,0.00
2018-04-26T02:30:00.156Z,0.00
2018-04-26T02:31:00.126Z,0.00
2018-04-26T02:32:00.108Z,0.00
2018-04-26T02:33:00.077Z,0.00
2018-04-26T02:34:00.051Z,0.00
2018-04-26T02:35:00.025Z,0.00
2018-04-26T02:35:59.995Z,0.00
2018-04-26T02:36:59.965Z,0.00
2018-04-26T02:37:59.945Z,0.00
2018-04-26T02:38:59.916Z,0.00
2018-04-26T02:39:59.885Z,0.00
2018-04-26T02:40:59.861Z,0.00
2018-04-26T02:41:59.839Z,0.00
2018-04-26T02:42:59.810Z,0.00
2018-04-26T02:43:59.775Z,0.00
2018-04-26T02:44:59.758Z,0.00
2018-04-26T02:45:59.730Z,0.00
2018-04-26T02:46:59.699Z,0.00
2018-04-26T02:47:59.681Z,0.00
2018-04-26T02:48:59.647Z,0.00
2018-04-26T02:49:59.622Z,0.00
2018-04-26T02:50:59.597Z,0.00
2018-04-26T02:51:59.565Z,0.00
2018-04-26T02:52:59.542Z,0.00
2018-04-26T02:53:59.523Z,0.00
2018-04-26T02:54:59.487Z,0.00
2018-04-26T02:55:59.468Z,0.00
2018-04-26T02:56:59.439Z,0.00
2018-04-26T02:57:59.411Z,0.00
2018-04-26T02:58:59.376Z,0.00
2018-04-26T02:59:59.358Z,0.00
2018-04-26T03:00:59.329Z,0.00
2018-04-26T03:01:59.296Z,0.00
2018-04-26T03:02:59.275Z,0.00
2018-04-26T03:03:59.245Z,0.00
2018-04-26T03:04:59.226Z,0.00
2018-04-26T03:05:59.207Z,0.00
2018-04-26T03:06:59.167Z,0.00
2018-04-26T03:07:59.142Z,0.00
2018-04-26T03:08:59.119Z,0.00
2018-04-26T03:09:59.090Z,0.00
2018-04-26T03:10:59.067Z,0.00
2018-04-26T03:11:59.037Z,0.00
2018-04-26T03:12:59.016Z,0.00
2018-04-26T03:13:58.980Z,0.00
2018-04-26T03:14:58.964Z,0.00
2018-04-26T03:15:58.929Z,0.00
2018-04-26T03:16:58.909Z,0.00
2018-04-26T03:17:58.883Z,0.00
2018-04-26T03:19:00.357Z,0.00
2018-04-26T03:19:59.432Z,0.00
2018-04-26T03:20:58.795Z,0.00
2018-04-26T03:21:58.764Z,0.00
2018-04-26T03:22:58.741Z,0.00
2018-04-26T03:23:58.719Z,0.00
2018-04-26T03:24:58.681Z,0.00
2018-04-26T03:25:58.660Z,0.00
2018-04-26T03:26:58.643Z,0.00
2018-04-26T03:27:58.608Z,0.00
2018-04-26T03:28:58.583Z,0.00
2018-04-26T03:29:58.556Z,0.00
2018-04-26T03:30:58.543Z,0.00
2018-04-26T03:31:58.499Z,0.00
2018-04-26T03:32:58.472Z,0.00
2018-04-26T03:33:58.444Z,0.00
2018-04-26T03:34:58.420Z,0.00
2018-04-26T03:35:58.384Z,0.00
2018-04-26T03:36:58.365Z,0.00
2018-04-26T03:37:58.331Z,0.00
2018-04-26T03:38:58.311Z,0.00
2018-04-26T03:39:58.281Z,0.00
2018-04-26T03:40:58.252Z,0.00
2018-04-26T03:41:58.231Z,0.00
2018-04-26T03:42:58.196Z,0.00
2018-04-26T03:43:58.171Z,0.00
2018-04-26T03:44:58.145Z,0.00
2018-04-26T03:45:58.119Z,0.00
2018-04-26T03:46:58.094Z,0.00
2018-04-26T03:47:58.069Z,0.00
2018-04-26T03:48:58.034Z,0.00
2018-04-26T03:49:58.010Z,0.00
2018-04-26T03:50:57.977Z,0.00
2018-04-26T03:51:57.953Z,0.00
2018-04-26T03:52:57.931Z,0.00
2018-04-26T03:53:57.899Z,0.00
2018-04-26T03:54:57.875Z,0.00
2018-04-26T03:55:57.854Z,0.00
2018-04-26T03:56:57.816Z,0.00
2018-04-26T03:57:57.795Z,0.00
2018-04-26T03:58:57.827Z,0.00
2018-04-26T03:59:57.733Z,0.00
2018-04-26T04:00:57.714Z,0.00
2018-04-26T04:01:57.681Z,0.00
2018-04-26T04:02:57.652Z,0.00
2018-04-26T04:03:57.635Z,0.00
2018-04-26T04:04:57.604Z,0.00
2018-04-26T04:05:57.575Z,0.00
2018-04-26T04:06:57.545Z,0.00
2018-04-26T04:07:57.523Z,0.00
2018-04-26T04:08:57.492Z,0.00
2018-04-26T04:09:57.470Z,0.00
2018-04-26T04:10:57.442Z,0.00
2018-04-26T04:11:57.412Z,0.00
2018-04-26T04:12:57.391Z,0.00
2018-04-26T04:13:57.358Z,0.00
2018-04-26T04:14:57.335Z,0.00
2018-04-26T04:15:57.302Z,0.00
2018-04-26T04:16:57.284Z,0.00
2018-04-26T04:17:57.244Z,0.00
2018-04-26T04:18:57.219Z,0.00
2018-04-26T04:19:57.196Z,0.00
2018-04-26T04:20:57.172Z,0.00
2018-04-26T04:21:57.150Z,0.00
2018-04-26T04:22:57.106Z,0.00
2018-04-26T04:23:57.086Z,0.00
2018-04-26T04:24:57.049Z,0.00
2018-04-26T04:25:57.030Z,0.00
2018-04-26T04:26:56.994Z,0.00
2018-04-26T04:27:57.054Z,0.00
2018-04-26T04:28:56.942Z,0.00
2018-04-26T04:29:56.912Z,0.00
2018-04-26T04:30:56.888Z,0.00
2018-04-26T04:31:56.857Z,0.00
2018-04-26T04:32:56.828Z,0.00
2018-04-26T04:33:56.803Z,0.00
2018-04-26T04:34:56.769Z,0.00
2018-04-26T04:35:56.749Z,0.00
2018-04-26T04:36:56.718Z,0.00
2018-04-26T04:37:56.689Z,0.00
2018-04-26T04:38:56.663Z,0.00
2018-04-26T04:39:56.627Z,0.00
2018-04-26T04:40:56.608Z,0.00
2018-04-26T04:41:56.570Z,0.00
2018-04-26T04:42:56.550Z,0.00
2018-04-26T04:43:56.517Z,5.63
2018-04-26T04:44:56.489Z,5.63
2018-04-26T04:45:56.466Z,5.63
2018-04-26T04:46:56.429Z,5.63
2018-04-26T04:47:56.405Z,5.63
2018-04-26T04:48:56.383Z,5.63
2018-04-26T04:49:56.359Z,5.63
2018-04-26T04:50:56.318Z,5.63
2018-04-26T04:51:56.296Z,5.63
2018-04-26T04:52:56.273Z,5.63
2018-04-26T04:53:56.243Z,5.63
2018-04-26T04:54:56.213Z,5.63
2018-04-26T04:55:56.182Z,5.63
2018-04-26T04:56:56.696Z,5.63
2018-04-26T04:57:56.507Z,5.63
2018-04-26T04:58:56.101Z,5.63
2018-04-26T04:59:56.077Z,5.63
2018-04-26T05:00:56.044Z,5.63
2018-04-26T05:01:56.081Z,5.63
2018-04-26T05:02:55.992Z,11.25
2018-04-26T05:03:55.960Z,11.25
2018-04-26T05:04:55.945Z,11.25
2018-04-26T05:05:55.919Z,11.25
2018-04-26T05:06:55.876Z,11.25
2018-04-26T05:07:55.857Z,11.25
2018-04-26T05:08:55.830Z,16.88
2018-04-26T05:09:55.793Z,16.88
2018-04-26T05:10:55.768Z,16.88
2018-04-26T05:11:55.739Z,22.50
2018-04-26T05:12:55.724Z,22.50
2018-04-26T05:13:55.688Z,22.50
2018-04-26T05:14:55.658Z,22.50
2018-04-26T05:15:55.637Z,22.50
2018-04-26T05:16:55.605Z,22.50
2018-04-26T05:17:55.577Z,28.13
2018-04-26T05:18:55.550Z,28.13
2018-04-26T05:19:55.524Z,33.75
2018-04-26T05:20:55.502Z,39.38
2018-04-26T05:21:55.468Z,45.00
2018-04-26T05:22:55.439Z,39.38
2018-04-26T05:23:55.409Z,33.75
2018-04-26T05:24:55.387Z,33.75
2018-04-26T05:25:55.360Z,28.13
2018-04-26T05:26:55.327Z,28.13
2018-04-26T05:27:55.308Z,22.50
2018-04-26T05:28:55.272Z,16.88
2018-04-26T05:29:55.260Z,16.88
2018-04-26T05:30:55.217Z,16.88
2018-04-26T05:31:55.198Z,22.50
2018-04-26T05:32:55.168Z,28.13
2018-04-26T05:33:55.133Z,33.75
2018-04-26T05:34:55.118Z,45.00
2018-04-26T05:35:55.084Z,50.63
2018-04-26T05:36:55.058Z,56.25
2018-04-26T05:37:55.030Z,56.25
2018-04-26T05:38:54.998Z,56.25
2018-04-26T05:39:54.977Z,61.88
2018-04-26T05:40:54.944Z,61.88
2018-04-26T05:41:54.916Z,61.88
2018-04-26T05:42:54.891Z,56.25
2018-04-26T05:43:54.867Z,56.25
2018-04-26T05:44:54.833Z,56.25
2018-04-26T05:45:54.808Z,56.25
2018-04-26T05:46:54.781Z,56.25
2018-04-26T05:47:54.757Z,56.25
2018-04-26T05:48:54.728Z,56.25
2018-04-26T05:49:54.695Z,56.25
2018-04-26T05:50:54.671Z,56.25
2018-04-26T05:51:54.647Z,56.25
2018-04-26T05:52:54.616Z,56.25
2018-04-26T05:53:54.588Z,56.25
2018-04-26T05:54:54.565Z,56.25
2018-04-26T05:55:54.590Z,56.25
2018-04-26T05:56:54.504Z,56.25
2018-04-26T05:57:54.481Z,67.50
2018-04-26T05:58:54.495Z,67.50
2018-04-26T05:59:54.432Z,67.50
2018-04-26T06:00:54.400Z,73.13
2018-04-26T06:01:54.373Z,67.50
2018-04-26T06:02:54.397Z,67.50
2018-04-26T06:03:54.411Z,73.13
2018-04-26T06:04:54.297Z,73.13
2018-04-26T06:05:54.269Z,73.13
2018-04-26T06:06:54.236Z,73.13
2018-04-26T06:07:54.213Z,73.13
2018-04-26T06:08:54.177Z,73.13
2018-04-26T06:09:54.152Z,73.13
2018-04-26T06:10:54.131Z,73.13
2018-04-26T06:11:54.102Z,73.13
2018-04-26T06:12:54.072Z,78.75
2018-04-26T06:13:54.049Z,78.75
2018-04-26T06:14:54.014Z,78.75
2018-04-26T06:15:54.000Z,78.75
2018-04-26T06:16:53.977Z,78.75
2018-04-26T06:17:53.949Z,73.13
2018-04-26T06:18:53.917Z,67.50
2018-04-26T06:19:53.886Z,73.13
2018-04-26T06:20:53.857Z,73.13
2018-04-26T06:21:53.834Z,78.75
2018-04-26T06:22:53.802Z,78.75
2018-04-26T06:23:53.774Z,78.75
2018-04-26T06:24:53.756Z,78.75
2018-04-26T06:25:53.723Z,78.75
2018-04-26T06:26:53.698Z,84.38
2018-04-26T06:27:53.669Z,78.75
2018-04-26T06:28:53.644Z,90.00
2018-04-26T06:29:53.617Z,78.75
2018-04-26T06:30:53.588Z,78.75
2018-04-26T06:31:53.560Z,78.75
2018-04-26T06:32:53.541Z,95.63
2018-04-26T06:33:53.505Z,101.25
2018-04-26T06:34:53.488Z,112.50
2018-04-26T06:35:53.453Z,112.50
2018-04-26T06:36:53.468Z,106.88
2018-04-26T06:37:53.412Z,101.25
2018-04-26T06:38:53.372Z,90.00
2018-04-26T06:39:53.356Z,90.00
2018-04-26T06:40:53.341Z,90.00
2018-04-26T06:41:53.306Z,84.38
2018-04-26T06:42:53.268Z,78.75
2018-04-26T06:43:53.243Z,78.75
2018-04-26T06:44:53.214Z,78.75
2018-04-26T06:45:53.187Z,78.75
2018-04-26T06:46:53.163Z,73.13
2018-04-26T06:47:53.158Z,84.38
2018-04-26T06:48:53.111Z,73.13
2018-04-26T06:49:53.082Z,61.88
2018-04-26T06:50:53.057Z,67.50
2018-04-26T06:51:53.027Z,84.38
2018-04-26T06:52:53.003Z,101.25
2018-04-26T06:53:52.976Z,118.13
2018-04-26T06:54:52.947Z,135.00
2018-04-26T06:55:52.927Z,135.00
2018-04-26T06:56:52.899Z,112.50
2018-04-26T06:57:52.866Z,106.88
2018-04-26T06:58:52.842Z,112.50
2018-04-26T06:59:52.821Z,106.88
2018-04-26T07:00:52.784Z,101.25
2018-04-26T07:01:52.762Z,106.88
2018-04-26T07:02:52.737Z,101.25
2018-04-26T07:03:52.703Z,101.25
2018-04-26T07:04:52.684Z,101.25
2018-04-26T07:05:52.695Z,101.25
2018-04-26T07:06:52.629Z,95.63
2018-04-26T07:07:52.595Z,101.25
2018-04-26T07:08:52.578Z,112.50
2018-04-26T07:09:52.544Z,118.13
2018-04-26T07:10:52.518Z,129.38
2018-04-26T07:11:52.495Z,123.75
2018-04-26T07:12:52.468Z,112.50
2018-04-26T07:13:52.432Z,146.25
2018-04-26T07:14:52.415Z,135.00
2018-04-26T07:15:52.387Z,123.75
2018-04-26T07:16:52.354Z,118.13
2018-04-26T07:17:52.334Z,123.75
2018-04-26T07:18:52.298Z,123.75
2018-04-26T07:19:52.274Z,129.38
2018-04-26T07:20:52.251Z,135.00
2018-04-26T07:21:52.263Z,123.75
2018-04-26T07:22:52.220Z,118.13
2018-04-26T07:23:52.172Z,129.38
2018-04-26T07:24:52.141Z,106.88
2018-04-26T07:25:52.114Z,112.50
2018-04-26T07:26:52.092Z,140.63
2018-04-26T07:27:52.070Z,118.13
2018-04-26T07:28:52.041Z,112.50
2018-04-26T07:29:52.011Z,129.38
2018-04-26T07:30:51.984Z,112.50
2018-04-26T07:31:51.959Z,101.25
2018-04-26T07:32:51.931Z,112.50
2018-04-26T07:33:51.905Z,118.13
2018-04-26T07:34:51.952Z,129.38
2018-04-26T07:35:51.852Z,151.88
2018-04-26T07:36:51.823Z,129.38
2018-04-26T07:37:51.799Z,129.38
2018-04-26T07:38:51.769Z,129.38
2018-04-26T07:39:51.747Z,123.75
2018-04-26T07:40:51.718Z,112.50
2018-04-26T07:41:51.692Z,90.00
2018-04-26T07:42:51.668Z,84.38
2018-04-26T07:43:51.639Z,78.75
2018-04-26T07:44:51.681Z,73.13
2018-04-26T07:45:51.584Z,67.50
2018-04-26T07:46:51.567Z,84.38
2018-04-26T07:47:51.545Z,112.50
2018-04-26T07:48:51.513Z,129.38
2018-04-26T07:49:51.480Z,123.75
2018-04-26T07:50:51.461Z,140.63
2018-04-26T07:51:51.440Z,129.38
2018-04-26T07:52:51.402Z,123.75
2018-04-26T07:53:51.375Z,106.88
2018-04-26T07:54:51.360Z,101.25
2018-04-26T07:55:51.331Z,118.13
2018-04-26T07:56:51.304Z,157.50
2018-04-26T07:57:51.269Z,146.25
2018-04-26T07:58:51.247Z,129.38
2018-04-26T07:59:51.221Z,129.38
2018-04-26T08:00:51.192Z,157.50
2018-04-26T08:01:51.184Z,112.50
2018-04-26T08:02:51.144Z,95.63
2018-04-26T08:03:51.113Z,90.00
2018-04-26T08:04:51.092Z,101.25
2018-04-26T08:05:51.062Z,135.00
2018-04-26T08:06:51.043Z,129.38
2018-04-26T08:07:51.008Z,129.38
2018-04-26T08:08:50.990Z,129.38
2018-04-26T08:09:50.956Z,123.75
2018-04-26T08:10:50.935Z,129.38
2018-04-26T08:11:50.907Z,129.38
2018-04-26T08:12:50.915Z,151.88
2018-04-26T08:13:50.884Z,112.50
2018-04-26T08:14:50.971Z,123.75
2018-04-26T08:15:50.827Z,146.25
2018-04-26T08:16:50.791Z,129.38
2018-04-26T08:17:51.534Z,101.25
2018-04-26T08:18:50.736Z,95.63
2018-04-26T08:19:50.707Z,84.38
2018-04-26T08:20:50.675Z,73.13
2018-04-26T08:21:50.656Z,84.38
2018-04-26T08:22:50.630Z,90.00
2018-04-26T08:23:50.606Z,90.00
2018-04-26T08:24:50.570Z,101.25
2018-04-26T08:25:50.547Z,163.13
2018-04-26T08:26:50.522Z,135.00
2018-04-26T08:27:50.501Z,118.13
2018-04-26T08:28:50.483Z,95.63
2018-04-26T08:29:50.446Z,90.00
2018-04-26T08:30:50.418Z,106.88
2018-04-26T08:31:50.391Z,101.25
2018-04-26T08:32:50.365Z,95.63
2018-04-26T08:33:50.340Z,95.63
2018-04-26T08:34:50.338Z,101.25
2018-04-26T08:35:50.292Z,106.88
2018-04-26T08:36:50.282Z,101.25
2018-04-26T08:37:50.238Z,151.88
2018-04-26T08:38:50.272Z,191.25
2018-04-26T08:39:50.196Z,191.25
2018-04-26T08:40:50.161Z,151.88
2018-04-26T08:41:50.129Z,123.75
2018-04-26T08:42:50.103Z,106.88
2018-04-26T08:43:50.082Z,112.50
2018-04-26T08:44:50.056Z,123.75
2018-04-26T08:45:50.033Z,112.50
2018-04-26T08:46:50.000Z,106.88
2018-04-26T08:47:49.978Z,106.88
2018-04-26T08:48:49.949Z,112.50
2018-04-26T08:49:49.928Z,118.13
2018-04-26T08:50:49.899Z,95.63
2018-04-26T08:51:49.876Z,140.63
2018-04-26T08:52:49.855Z,157.50
2018-04-26T08:53:49.821Z,168.75
2018-04-26T08:54:49.799Z,180.00
2018-04-26T08:55:49.770Z,174.38
2018-04-26T08:56:49.747Z,157.50
2018-04-26T08:57:49.723Z,157.50
2018-04-26T08:58:49.690Z,146.25
2018-04-26T08:59:49.733Z,106.88
2018-04-26T09:00:49.637Z,101.25
2018-04-26T09:01:49.620Z,129.38
2018-04-26T09:02:49.597Z,157.50
2018-04-26T09:03:49.562Z,157.50
2018-04-26T09:04:49.539Z,118.13
2018-04-26T09:05:49.523Z,101.25
2018-04-26T09:06:49.507Z,101.25
2018-04-26T09:07:49.461Z,101.25
2018-04-26T09:08:49.440Z,112.50
2018-04-26T09:09:49.406Z,168.75
2018-04-26T09:10:49.392Z,191.25
2018-04-26T09:11:49.363Z,151.88
2018-04-26T09:12:49.335Z,151.88
2018-04-26T09:13:49.309Z,151.88
2018-04-26T09:14:49.280Z,157.50
2018-04-26T09:15:49.260Z,168.75
2018-04-26T09:16:49.232Z,208.13
2018-04-26T09:17:49.211Z,185.63
2018-04-26T09:18:49.186Z,174.38
2018-04-26T09:19:49.168Z,129.38
2018-04-26T09:20:50.077Z,78.75
2018-04-26T09:21:49.100Z,61.88
2018-04-26T09:22:49.093Z,45.00
2018-04-26T09:23:49.119Z,39.38
2018-04-26T09:24:49.033Z,50.63
2018-04-26T09:25:49.011Z,78.75
2018-04-26T09:26:48.974Z,101.25
2018-04-26T09:27:48.957Z,106.88
2018-04-26T09:28:48.930Z,112.50
2018-04-26T09:29:48.902Z,118.13
2018-04-26T09:30:48.877Z,129.38
2018-04-26T09:31:48.854Z,151.88
2018-04-26T09:32:48.828Z,163.13
2018-04-26T09:33:48.803Z,168.75
2018-04-26T09:34:48.775Z,174.38
2018-04-26T09:35:48.756Z,168.75
2018-04-26T09:36:48.730Z,151.88
2018-04-26T09:37:48.698Z,106.88
2018-04-26T09:38:48.739Z,118.13
2018-04-26T09:39:48.652Z,118.13
2018-04-26T09:40:48.620Z,106.88
2018-04-26T09:41:48.599Z,101.25
2018-04-26T09:42:48.571Z,95.63
2018-04-26T09:43:48.547Z,95.63
2018-04-26T09:44:48.529Z,95.63
2018-04-26T09:45:50.085Z,95.63
2018-04-26T09:46:48.496Z,95.63
2018-04-26T09:47:48.446Z,90.00
2018-04-26T09:48:48.424Z,90.00
2018-04-26T09:49:48.402Z,95.63
2018-04-26T09:50:48.373Z,95.63
2018-04-26T09:51:48.349Z,101.25
2018-04-26T09:52:48.326Z,101.25
2018-04-26T09:53:48.296Z,95.63
2018-04-26T09:54:48.269Z,90.00
2018-04-26T09:55:48.246Z,101.25
2018-04-26T09:56:48.217Z,101.25
2018-04-26T09:57:48.192Z,106.88
2018-04-26T09:58:48.164Z,118.13
2018-04-26T09:59:48.138Z,123.75
2018-04-26T10:00:48.119Z,135.00
2018-04-26T10:01:48.155Z,140.63
2018-04-26T10:02:48.067Z,168.75
2018-04-26T10:03:48.041Z,123.75
2018-04-26T10:04:48.014Z,146.25
2018-04-26T10:05:47.984Z,163.13
2018-04-26T10:06:48.599Z,191.25
2018-04-26T10:08:47.945Z,180.00
2018-04-26T10:09:47.889Z,202.50
2018-04-26T10:11:48.511Z,174.38
2018-04-26T10:12:47.813Z,174.38
2018-04-26T10:13:47.788Z,202.50
2018-04-26T10:14:47.758Z,185.63
2018-04-26T10:17:47.687Z,118.13
